Vermilion, Illinois
Current Conditions -  °F | °C
As of 8:55 PM on Sunday 23 Nov 2014 (Local Time) from KPRG Reporting Station
Moderate Rain Moderate Rain  
Wind Chill: 52°   Ceiling: 900
Heat Index: 52°   Visibility: 5mi
Dew Point: 52°   Wind: 6mph
Humidity: 100%   Direction: 170°S
Pressure: 29.21"   Gusts: NA
Location:  39.58°N, 87.59°W
Report Text: KPRG 240255Z AUTO 17005KT 5SM RA SCT005 BKN009 OVC015 11/11 A2921 RMK AO2 P0008 60040 T01110111
Loading
Personal Weather Stations






























Interactive Weather Map New forecast layout! Learn more

10-Day Weather Forecast

Advertisements
Track Severe Weather on mobile